Airfield :
LOGIN :

Register | Disclaimer

   EN    FR    IT 

 










Legend :    VFR   Marginal VFR   IFR   Intensive IFR   Very Intensive IFR
Visi :
Ceiling :
>= 8 km
>= 3000ft
5 to 8 km
1000 to 3000 ft
1500m to 5 km
500 to 1000 ft
800 to 1500m
200 to 500 ft
< 800m
< 200 ft
Symbols :   Thunderstorms  Fog  Heavy snow  Heavy precipitations  Wind > 20 kt
SIGMETs :     Misc.  Thunderstorms  Icing  Turbulence  Mountain Waves  Volcanic Ashes






- Airport Elevation : 53 ft
- IATA code : HRT


EGXU - RAF Linton-on-Ouse

CURRENT METAR :
  • 221120Z 21009KT 9999 FEW024 BKN160 11/07 Q1020 TEMPO SCT024 RMK BLU TEMPO WHT

EXPIRED METARs :
  • 221050Z 18005KT 9999 FEW015 BKN160 10/07 Q1020 TEMPO SCT020 RMK BLU TEMPO WHT
  • 221019Z 16007KT 9999 FEW012 BKN150 08/06 Q1021 TEMPO SCT020 RMK BLU TEMPO WHT
  • 220950Z 18006KT 9999 FEW012 BKN170 08/06 Q1021 TEMPO SCT020 RMK BLU TEMPO WHT
  • 220921Z 17007KT 9999 FEW010 BKN170 07/06 Q1021 TEMPO SCT020 RMK BLU TEMPO WHT
  • 220850Z 19006KT 9999 FEW010 BKN180 07/06 Q1021 TEMPO SCT020 RMK BLU TEMPO WHT

TAF TAF EGXU
Valid from the 22 at 12:00 until the 22 at 18:00 UTC


221018Z 2212/2218 20007KT 9999 FEW020 SCT030
PROB30
TEMPO 2212/2213 SCT020



MET'MAP, your aeronautical weather chart ! - Copyright ORBIFLY December 2007 - Disclaimer

ORBIFLY MET'MAP TEAM :

Programming & Development : Alexandra Zaïnal
Concept & Development : Baudouin d'Aumeries
Co-Development & Prog : Marc-Olivier Méhu
Technical & hardware support : Manuel Goepfert

Contact : metmap@orbifly.com




SOURCES & CREDITS :

   NOAA